createdAt,value
2024-04-25T00:01:11.426Z,2.97
2024-04-25T00:03:38.533Z,2.13
2024-04-25T00:06:06.417Z,2.00
2024-04-25T00:08:33.483Z,2.13
2024-04-25T00:11:00.563Z,1.58
2024-04-25T00:13:27.964Z,3.50
2024-04-25T00:15:56.493Z,2.95
2024-04-25T00:18:24.039Z,2.47
2024-04-25T00:20:51.512Z,1.75
2024-04-25T00:23:18.494Z,1.52
2024-04-25T00:25:45.552Z,1.77
2024-04-25T00:28:12.916Z,1.23
2024-04-25T00:30:39.902Z,2.08
2024-04-25T00:33:07.074Z,1.90
2024-04-25T00:35:34.285Z,1.65
2024-04-25T00:38:01.347Z,2.85
2024-04-25T00:40:28.307Z,1.35
2024-04-25T00:42:55.334Z,1.83
2024-04-25T00:45:22.289Z,4.18
2024-04-25T00:47:50.123Z,1.50
2024-04-25T00:50:18.203Z,2.60
2024-04-25T00:52:45.738Z,1.77
2024-04-25T00:55:13.167Z,2.10
2024-04-25T00:57:42.365Z,2.25
2024-04-25T01:00:09.945Z,1.63
2024-04-25T01:02:40.417Z,2.50
2024-04-25T01:05:08.964Z,1.95
2024-04-25T01:07:35.949Z,2.05
2024-04-25T01:10:02.974Z,2.33
2024-04-25T01:12:32.666Z,1.83
2024-04-25T01:14:59.882Z,1.15
2024-04-25T01:17:30.033Z,1.15
2024-04-25T01:19:56.989Z,1.85
2024-04-25T01:22:27.205Z,1.38
2024-04-25T01:24:54.859Z,1.38
2024-04-25T01:27:22.504Z,2.28
2024-04-25T01:29:49.481Z,1.08
2024-04-25T01:32:17.087Z,2.38
2024-04-25T01:34:44.899Z,2.38
2024-04-25T01:37:11.907Z,3.45
2024-04-25T01:39:38.853Z,2.03
2024-04-25T01:42:05.858Z,2.00
2024-04-25T01:44:32.807Z,1.80
2024-04-25T01:46:59.749Z,2.67
2024-04-25T01:49:26.770Z,2.75
2024-04-25T01:51:53.707Z,3.40
2024-04-25T01:54:20.675Z,2.10
2024-04-25T01:56:47.694Z,3.15
2024-04-25T01:59:14.723Z,2.88
2024-04-25T02:01:41.717Z,1.77
2024-04-25T02:04:08.690Z,2.47
2024-04-25T02:06:35.625Z,2.30
2024-04-25T02:09:02.598Z,4.35
2024-04-25T02:11:31.086Z,2.90
2024-04-25T02:13:58.445Z,2.70
2024-04-25T02:16:25.644Z,2.22
2024-04-25T02:18:52.720Z,3.83
2024-04-25T02:21:38.326Z,3.25
2024-04-25T02:24:24.587Z,3.03
2024-04-25T02:26:51.587Z,2.00
2024-04-25T02:29:18.633Z,4.07
2024-04-25T02:31:45.596Z,4.25
2024-04-25T02:34:12.528Z,3.05
2024-04-25T02:36:39.833Z,2.53
2024-04-25T02:39:08.026Z,1.80
2024-04-25T02:41:35.035Z,4.40
2024-04-25T02:44:02.614Z,3.28
2024-04-25T02:46:29.630Z,2.85
2024-04-25T02:48:56.771Z,2.58
2024-04-25T02:51:23.764Z,2.05
2024-04-25T02:53:50.712Z,3.20
2024-04-25T02:56:17.816Z,3.67
2024-04-25T02:58:44.995Z,4.15
2024-04-25T03:01:12.039Z,4.03
2024-04-25T03:03:39.368Z,2.53
2024-04-25T03:06:07.264Z,2.65
2024-04-25T03:08:40.174Z,2.28
2024-04-25T03:11:07.226Z,3.75
2024-04-25T03:13:36.620Z,4.10
2024-04-25T03:16:06.077Z,3.55
2024-04-25T03:18:33.189Z,3.08
2024-04-25T03:21:04.956Z,4.38
2024-04-25T03:23:33.251Z,2.88
2024-04-25T03:26:00.269Z,3.03
2024-04-25T03:28:27.241Z,2.53
2024-04-25T03:30:54.175Z,4.25
2024-04-25T03:33:21.199Z,3.47
2024-04-25T03:35:48.265Z,4.78
2024-04-25T03:38:15.229Z,6.30
2024-04-25T03:40:42.803Z,4.55
2024-04-25T03:43:10.319Z,2.88
2024-04-25T03:45:37.507Z,3.08
2024-04-25T03:48:04.880Z,2.88
2024-04-25T03:50:32.049Z,2.83
2024-04-25T03:52:58.988Z,2.25
2024-04-25T03:55:26.015Z,2.35
2024-04-25T03:57:53.063Z,2.72
2024-04-25T04:00:20.160Z,4.95
2024-04-25T04:02:47.924Z,2.65
2024-04-25T04:05:16.056Z,4.80
2024-04-25T04:07:44.594Z,4.93
2024-04-25T04:10:11.624Z,5.20
2024-04-25T04:12:38.595Z,5.28
2024-04-25T04:15:06.599Z,3.53
2024-04-25T04:17:33.760Z,2.78
2024-04-25T04:20:00.957Z,2.95
2024-04-25T04:22:27.999Z,3.55
2024-04-25T04:24:54.943Z,3.58
2024-04-25T04:27:22.019Z,3.50
2024-04-25T04:29:49.158Z,3.17
2024-04-25T04:32:16.208Z,3.13
2024-04-25T04:34:45.696Z,3.38
2024-04-25T04:37:13.230Z,5.85
2024-04-25T04:39:40.209Z,3.55
2024-04-25T04:42:07.180Z,2.88
2024-04-25T04:44:34.175Z,4.28
2024-04-25T04:47:01.198Z,2.80
2024-04-25T04:49:28.179Z,7.80
2024-04-25T04:51:55.138Z,5.00
2024-04-25T04:54:22.112Z,4.70
2024-04-25T04:56:49.145Z,3.35
2024-04-25T04:59:16.229Z,2.63
2024-04-25T05:01:43.235Z,4.00
2024-04-25T05:04:10.472Z,3.40
2024-04-25T05:06:37.755Z,2.78
2024-04-25T05:09:07.567Z,3.03
2024-04-25T05:11:34.672Z,4.70
2024-04-25T05:14:04.250Z,6.40
2024-04-25T05:16:34.422Z,3.85
2024-04-25T05:19:01.765Z,5.38
2024-04-25T05:21:32.034Z,4.95
2024-04-25T05:24:00.634Z,5.95
2024-04-25T05:26:27.991Z,3.78
2024-04-25T05:28:55.236Z,6.88
2024-04-25T05:31:22.193Z,5.15
2024-04-25T05:33:51.086Z,3.92
2024-04-25T05:36:18.272Z,4.85
2024-04-25T05:38:45.267Z,4.72
2024-04-25T05:41:12.303Z,4.05
2024-04-25T05:43:39.266Z,6.22
2024-04-25T05:46:07.542Z,4.68
2024-04-25T05:48:34.752Z,3.65
2024-04-25T05:51:02.385Z,3.05
2024-04-25T05:53:29.379Z,4.95
2024-04-25T05:55:56.374Z,4.90
2024-04-25T05:58:23.377Z,4.82
2024-04-25T06:00:50.864Z,4.78
2024-04-25T06:03:17.968Z,4.68
2024-04-25T06:05:45.173Z,5.18
2024-04-25T06:08:12.167Z,5.72
2024-04-25T06:10:39.326Z,5.55
2024-04-25T06:13:06.410Z,9.18
2024-04-25T06:15:33.490Z,6.03
2024-04-25T06:18:03.537Z,4.38
2024-04-25T06:20:30.689Z,6.47
2024-04-25T06:22:58.638Z,5.03
2024-04-25T06:25:25.580Z,7.18
2024-04-25T06:27:52.597Z,7.32
2024-04-25T06:30:19.603Z,5.60
2024-04-25T06:32:46.761Z,5.85
2024-04-25T06:35:14.226Z,9.07
2024-04-25T06:37:41.372Z,5.68
2024-04-25T06:40:08.921Z,4.88
2024-04-25T06:42:35.850Z,6.57
2024-04-25T06:45:03.019Z,3.83
2024-04-25T06:47:30.114Z,6.00
2024-04-25T06:49:57.210Z,5.38
2024-04-25T06:52:24.455Z,5.80
2024-04-25T06:54:52.612Z,6.00
2024-04-25T06:57:19.780Z,4.20
2024-04-25T06:59:48.341Z,6.35
2024-04-25T07:02:18.423Z,4.50
2024-04-25T07:04:45.723Z,5.25
2024-04-25T07:07:12.708Z,3.42
2024-04-25T07:09:39.768Z,4.55
2024-04-25T07:12:07.658Z,6.28
2024-04-25T07:14:34.672Z,7.10
2024-04-25T07:17:01.671Z,4.45
2024-04-25T07:19:28.673Z,7.90
2024-04-25T07:21:56.242Z,3.47
2024-04-25T07:24:23.299Z,4.32
2024-04-25T07:26:50.388Z,7.75
2024-04-25T07:29:17.378Z,4.65
2024-04-25T07:31:44.368Z,4.03
2024-04-25T07:34:11.333Z,5.07
2024-04-25T07:36:38.542Z,4.80
2024-04-25T07:39:06.345Z,5.85
2024-04-25T07:41:33.632Z,2.80
2024-04-25T07:44:00.675Z,5.72
2024-04-25T07:46:28.035Z,4.97
2024-04-25T07:48:55.477Z,5.60
2024-04-25T07:51:22.683Z,4.65
2024-04-25T07:53:49.783Z,4.72
2024-04-25T07:56:16.997Z,3.03
2024-04-25T07:58:44.245Z,8.27
2024-04-25T08:01:14.697Z,2.63
2024-04-25T08:03:41.800Z,9.27
2024-04-25T08:06:08.829Z,4.22
2024-04-25T08:08:35.866Z,5.10
2024-04-25T08:11:05.382Z,3.40
2024-04-25T08:13:32.428Z,3.25
2024-04-25T08:15:59.387Z,4.68
2024-04-25T08:18:26.395Z,3.45
2024-04-25T08:20:53.633Z,2.95
2024-04-25T08:23:20.746Z,3.33
2024-04-25T08:25:47.696Z,4.70
2024-04-25T08:28:14.700Z,3.88
2024-04-25T08:30:41.693Z,5.72
2024-04-25T08:33:09.972Z,2.95
2024-04-25T08:35:37.327Z,6.15
2024-04-25T08:38:04.428Z,3.10
2024-04-25T08:40:31.421Z,3.15
2024-04-25T08:43:00.350Z,2.97
2024-04-25T08:45:28.501Z,3.15
2024-04-25T08:47:57.977Z,4.88
2024-04-25T08:50:29.740Z,4.80
2024-04-25T08:53:00.443Z,4.20
2024-04-25T08:55:27.872Z,4.30
2024-04-25T08:57:55.752Z,3.65
2024-04-25T09:00:23.077Z,6.25
2024-04-25T09:02:52.128Z,4.50
2024-04-25T09:05:21.444Z,4.90
2024-04-25T09:07:48.760Z,3.60
2024-04-25T09:10:15.754Z,3.47
2024-04-25T09:12:42.705Z,3.50
2024-04-25T09:15:09.716Z,2.25
2024-04-25T09:17:39.408Z,3.55
2024-04-25T09:20:08.723Z,1.83
2024-04-25T09:22:38.492Z,2.13
2024-04-25T09:25:07.160Z,5.22
2024-04-25T09:27:34.154Z,2.20
2024-04-25T09:30:01.714Z,4.78
2024-04-25T09:32:30.845Z,5.75
2024-04-25T09:35:02.374Z,2.47
2024-04-25T09:37:32.825Z,4.28
2024-04-25T09:40:05.281Z,2.05
2024-04-25T09:42:37.490Z,2.73
2024-04-25T09:45:07.025Z,2.08
2024-04-25T09:47:38.122Z,2.47
2024-04-25T09:50:22.029Z,2.33
2024-04-25T09:53:18.227Z,2.53
2024-04-25T09:55:47.002Z,3.00
2024-04-25T09:58:26.846Z,3.58
2024-04-25T10:00:55.770Z,2.72
2024-04-25T10:03:23.850Z,1.77
2024-04-25T10:05:51.207Z,2.28
2024-04-25T10:08:18.340Z,3.35
2024-04-25T10:10:45.679Z,2.67
2024-04-25T10:13:20.717Z,5.20
2024-04-25T10:15:53.596Z,4.25
2024-04-25T10:18:21.064Z,4.53
2024-04-25T10:20:58.521Z,4.10
2024-04-25T10:23:35.217Z,2.00
2024-04-25T10:26:02.458Z,3.10
2024-04-25T10:28:30.119Z,3.00
2024-04-25T10:30:59.139Z,4.28
2024-04-25T10:33:26.288Z,3.85
2024-04-25T10:35:55.155Z,4.97
2024-04-25T10:38:23.047Z,4.15
2024-04-25T10:40:50.854Z,5.53
2024-04-25T10:43:18.945Z,6.13
2024-04-25T10:45:46.249Z,4.30
2024-04-25T10:48:13.508Z,3.85
2024-04-25T10:50:42.774Z,4.65
2024-04-25T10:53:10.113Z,4.78
2024-04-25T10:55:37.112Z,5.82
2024-04-25T10:58:14.702Z,3.08
2024-04-25T11:00:45.033Z,3.60
2024-04-25T11:03:12.909Z,5.40
2024-04-25T11:05:41.645Z,3.30
2024-04-25T11:08:08.725Z,2.30
2024-04-25T11:10:36.251Z,1.33
2024-04-25T11:13:03.756Z,0.60
2024-04-25T11:15:32.679Z,0.85
2024-04-25T11:18:09.889Z,0.52
2024-04-25T11:20:41.486Z,0.82
2024-04-25T11:23:21.134Z,0.90
2024-04-25T11:25:51.752Z,1.10
2024-04-25T11:28:19.613Z,1.10
2024-04-25T11:30:46.907Z,1.30
2024-04-25T11:33:14.175Z,1.08
2024-04-25T11:35:47.599Z,1.05
2024-04-25T11:38:17.396Z,3.20
2024-04-25T11:40:49.569Z,1.75
2024-04-25T11:43:18.409Z,1.65
2024-04-25T11:45:47.877Z,1.23
2024-04-25T11:48:22.201Z,0.60
2024-04-25T11:53:16.654Z,2.45
2024-04-25T11:55:43.736Z,0.75
2024-04-25T11:58:10.731Z,1.05
2024-04-25T12:00:38.651Z,1.88
2024-04-25T12:03:06.363Z,1.00
2024-04-25T12:05:33.651Z,1.15
2024-04-25T12:08:04.968Z,1.00
2024-04-25T12:10:32.352Z,0.75
2024-04-25T12:12:59.922Z,0.47
2024-04-25T12:15:26.945Z,1.38
2024-04-25T12:17:54.135Z,1.92
2024-04-25T12:20:21.193Z,0.80
2024-04-25T12:22:48.197Z,0.73
2024-04-25T12:25:15.495Z,0.50
2024-04-25T12:27:43.185Z,1.13
2024-04-25T12:30:10.916Z,1.33
2024-04-25T12:32:38.112Z,1.80
2024-04-25T12:35:05.418Z,1.75
2024-04-25T12:37:32.389Z,1.33
2024-04-25T12:39:59.387Z,1.20
2024-04-25T12:42:28.909Z,2.53
2024-04-25T12:44:56.229Z,1.58
2024-04-25T12:47:23.573Z,3.42
2024-04-25T12:49:50.800Z,1.92
2024-04-25T12:52:17.873Z,2.00
2024-04-25T12:54:44.833Z,0.90
2024-04-25T12:57:12.848Z,2.67
2024-04-25T12:59:39.952Z,3.20
2024-04-25T13:02:06.925Z,1.95
2024-04-25T13:04:33.994Z,1.70
2024-04-25T13:07:01.129Z,0.98
2024-04-25T13:09:29.762Z,0.98
2024-04-25T13:11:57.216Z,1.20
2024-04-25T13:14:24.370Z,1.33
2024-04-25T13:16:51.363Z,1.50
2024-04-25T13:19:18.407Z,1.17
2024-04-25T13:21:46.904Z,0.90
2024-04-25T13:24:14.067Z,1.25
2024-04-25T13:26:41.229Z,1.05
2024-04-25T13:29:08.185Z,1.77
2024-04-25T13:31:36.533Z,2.00
2024-04-25T13:34:03.717Z,1.25
2024-04-25T13:36:31.004Z,2.00
2024-04-25T13:38:58.865Z,0.68
2024-04-25T13:41:26.325Z,1.77
2024-04-25T13:43:53.459Z,2.58
2024-04-25T13:46:20.533Z,2.20
2024-04-25T13:48:47.578Z,0.80
2024-04-25T13:51:14.575Z,0.65
2024-04-25T13:53:41.596Z,2.70
2024-04-25T13:56:08.782Z,1.23
2024-04-25T13:58:38.421Z,0.93
2024-04-25T14:01:08.734Z,1.60
2024-04-25T14:03:36.378Z,3.30
2024-04-25T14:06:03.582Z,3.10
2024-04-25T14:08:30.665Z,1.30
2024-04-25T14:10:57.703Z,2.67
2024-04-25T14:13:24.730Z,1.85
2024-04-25T14:15:51.690Z,3.17
2024-04-25T14:18:19.230Z,0.70
2024-04-25T14:20:46.255Z,3.20
2024-04-25T14:23:13.306Z,1.15
2024-04-25T14:25:59.000Z,1.63
2024-04-25T14:28:55.245Z,1.65
2024-04-25T14:31:22.236Z,0.82
2024-04-25T14:33:49.555Z,1.38
2024-04-25T14:36:20.050Z,5.28
2024-04-25T14:38:47.330Z,2.55
2024-04-25T14:41:14.772Z,2.72
2024-04-25T14:43:43.000Z,1.83
2024-04-25T14:46:10.286Z,3.28
2024-04-25T14:48:37.328Z,0.60
2024-04-25T14:51:04.624Z,1.30
2024-04-25T14:53:32.915Z,0.68
2024-04-25T14:56:00.044Z,0.50
2024-04-25T14:58:27.181Z,2.33
2024-04-25T15:00:54.196Z,1.27
2024-04-25T15:03:21.236Z,1.35
2024-04-25T15:05:48.763Z,1.05
2024-04-25T15:08:17.056Z,1.23
2024-04-25T15:10:47.613Z,1.13
2024-04-25T15:13:23.425Z,1.42
2024-04-25T15:15:51.933Z,1.02
2024-04-25T15:18:19.148Z,2.65
2024-04-25T15:20:46.302Z,0.47
2024-04-25T15:23:13.650Z,1.77
2024-04-25T15:25:40.990Z,1.77
2024-04-25T15:28:09.389Z,2.10
2024-04-25T15:30:37.659Z,3.35
2024-04-25T15:33:05.173Z,1.33
2024-04-25T15:35:32.373Z,0.93
2024-04-25T15:37:59.357Z,4.22
2024-04-25T15:40:27.103Z,1.65
2024-04-25T15:42:54.068Z,1.92
2024-04-25T15:45:21.052Z,0.82
2024-04-25T15:47:48.128Z,2.30
2024-04-25T15:50:15.237Z,1.90
2024-04-25T15:52:42.460Z,1.63
2024-04-25T15:55:09.407Z,0.98
2024-04-25T15:57:36.446Z,1.00
2024-04-25T16:00:03.610Z,1.90
2024-04-25T16:02:32.135Z,1.45
2024-04-25T16:04:59.161Z,2.17
2024-04-25T16:07:26.134Z,0.63
2024-04-25T16:09:53.122Z,2.42
2024-04-25T16:12:20.264Z,1.45
2024-04-25T16:14:47.398Z,1.75
2024-04-25T16:17:14.605Z,1.38
2024-04-25T16:19:43.020Z,0.73
2024-04-25T16:22:10.250Z,1.65
2024-04-25T16:24:37.360Z,1.05
2024-04-25T16:27:07.138Z,1.40
2024-04-25T16:29:34.829Z,1.05
2024-04-25T16:32:01.915Z,0.75
2024-04-25T16:34:28.950Z,1.48
2024-04-25T16:36:56.649Z,1.27
2024-04-25T16:39:25.097Z,1.75
2024-04-25T16:41:52.503Z,1.25
2024-04-25T16:44:19.645Z,1.40
2024-04-25T16:46:46.807Z,2.30
2024-04-25T16:49:13.787Z,1.60
2024-04-25T16:51:40.743Z,1.02
2024-04-25T16:54:07.774Z,2.33
2024-04-25T16:56:36.332Z,0.68
2024-04-25T16:59:03.429Z,1.48
2024-04-25T17:01:30.936Z,0.63
2024-04-25T17:03:58.136Z,1.77
2024-04-25T17:06:25.331Z,3.03
2024-04-25T17:08:52.389Z,2.95
2024-04-25T17:11:29.690Z,1.00
2024-04-25T17:14:04.624Z,2.90
2024-04-25T17:16:31.850Z,1.92
2024-04-25T17:18:59.464Z,1.48
2024-04-25T17:21:26.571Z,0.95
2024-04-25T17:23:56.695Z,1.10
2024-04-25T17:26:24.506Z,1.02
2024-04-25T17:28:52.832Z,0.50
2024-04-25T17:31:20.584Z,1.10
2024-04-25T17:33:47.644Z,1.10
2024-04-25T17:36:14.763Z,1.15
2024-04-25T17:38:41.905Z,2.15
2024-04-25T17:41:09.311Z,1.15
2024-04-25T17:43:36.963Z,1.70
2024-04-25T17:46:06.829Z,1.92
2024-04-25T17:48:34.927Z,1.75
2024-04-25T17:51:02.967Z,1.58
2024-04-25T17:53:29.957Z,2.10
2024-04-25T17:55:57.011Z,1.35
2024-04-25T17:58:24.569Z,1.75
2024-04-25T18:00:51.665Z,3.50
2024-04-25T18:03:18.831Z,4.65
2024-04-25T18:05:46.309Z,4.13
2024-04-25T18:08:13.714Z,3.70
2024-04-25T18:10:43.352Z,5.43
2024-04-25T18:13:10.421Z,1.65
2024-04-25T18:15:37.401Z,1.25
2024-04-25T18:18:04.717Z,1.30
2024-04-25T18:20:31.827Z,1.10
2024-04-25T18:22:58.928Z,2.58
2024-04-25T18:25:26.356Z,4.07
2024-04-25T18:27:53.602Z,1.60
2024-04-25T18:30:20.687Z,1.90
2024-04-25T18:32:50.222Z,1.70
2024-04-25T18:35:18.455Z,0.60
2024-04-25T18:37:45.747Z,0.90
2024-04-25T18:49:23.201Z,1.20
2024-04-25T18:51:50.293Z,1.90
2024-04-25T18:54:17.439Z,2.03
2024-04-25T18:56:44.493Z,1.70
2024-04-25T18:59:11.605Z,2.78
2024-04-25T19:01:38.645Z,1.20
2024-04-25T19:04:06.002Z,0.80
2024-04-25T19:06:33.010Z,1.60
2024-04-25T19:09:00.511Z,1.77
2024-04-25T19:11:28.198Z,1.52
2024-04-25T19:13:57.633Z,0.70
2024-04-25T19:16:25.278Z,1.67
2024-04-25T19:18:52.778Z,4.15
2024-04-25T19:21:19.708Z,1.05
2024-04-25T19:23:46.797Z,0.70
2024-04-25T19:26:13.814Z,2.20
2024-04-25T19:28:41.209Z,1.55
2024-04-25T19:31:08.212Z,1.90
2024-04-25T19:33:45.905Z,1.40
2024-04-25T19:36:16.639Z,2.17
2024-04-25T19:38:43.930Z,0.88
2024-04-25T19:41:12.303Z,3.65
2024-04-25T19:43:39.743Z,2.08
2024-04-25T19:46:12.420Z,0.95
2024-04-25T19:48:40.227Z,2.30
2024-04-25T19:51:08.030Z,0.80
2024-04-25T19:53:35.164Z,1.02
2024-04-25T19:56:02.334Z,2.95
2024-04-25T19:58:29.495Z,1.83
2024-04-25T20:00:56.502Z,2.45
2024-04-25T20:03:23.622Z,1.30
2024-04-25T20:05:50.864Z,1.77
2024-04-25T20:08:18.184Z,2.47
2024-04-25T20:10:45.223Z,1.80
2024-04-25T20:13:12.417Z,1.13
2024-04-25T20:15:39.863Z,1.80
2024-04-25T20:18:25.437Z,1.42
2024-04-25T20:21:05.770Z,1.73
2024-04-25T20:23:40.352Z,1.05
2024-04-25T20:26:09.327Z,1.92
2024-04-25T20:28:37.273Z,1.30
2024-04-25T20:31:05.107Z,1.85
2024-04-25T20:33:33.384Z,1.60
2024-04-25T20:36:05.652Z,2.58
2024-04-25T20:38:34.859Z,0.80
2024-04-25T20:41:03.363Z,3.40
2024-04-25T20:43:30.738Z,0.90
2024-04-25T20:45:58.487Z,1.27
2024-04-25T20:48:25.929Z,1.23
2024-04-25T20:50:54.780Z,3.22
2024-04-25T20:53:21.982Z,2.22
2024-04-25T20:55:49.215Z,0.90
2024-04-25T20:58:16.263Z,2.63
2024-04-25T21:00:46.824Z,2.55
2024-04-25T21:03:14.506Z,1.80
2024-04-25T21:05:41.881Z,1.58
2024-04-25T21:08:12.366Z,1.10
2024-04-25T21:10:39.745Z,4.07
2024-04-25T21:13:06.756Z,1.40
2024-04-25T21:15:33.801Z,2.80
2024-04-25T21:18:01.172Z,1.90
2024-04-25T21:20:30.715Z,1.20
2024-04-25T21:22:57.876Z,1.10
2024-04-25T21:25:24.903Z,1.80
2024-04-25T21:27:51.998Z,2.05
2024-04-25T21:30:19.089Z,1.70
2024-04-25T21:32:46.825Z,3.08
2024-04-25T21:35:14.114Z,2.30
2024-04-25T21:37:41.486Z,3.50
2024-04-25T21:40:08.959Z,1.98
2024-04-25T21:42:36.014Z,1.85
2024-04-25T21:45:04.229Z,3.58
2024-04-25T21:47:31.814Z,1.83
2024-04-25T21:49:58.907Z,1.35
2024-04-25T21:52:26.064Z,1.67
2024-04-25T21:54:53.564Z,1.63
2024-04-25T21:57:20.615Z,1.35
2024-04-25T21:59:47.898Z,4.63
2024-04-25T22:02:15.072Z,1.23
2024-04-25T22:04:42.431Z,1.98
2024-04-25T22:07:09.506Z,1.77
2024-04-25T22:09:36.972Z,2.53
2024-04-25T22:12:05.063Z,2.47
2024-04-25T22:14:32.713Z,1.13
2024-04-25T22:16:59.717Z,2.15
2024-04-25T22:19:28.064Z,2.55
2024-04-25T22:21:55.609Z,1.83
2024-04-25T22:24:24.600Z,1.75
2024-04-25T22:26:52.091Z,1.67
2024-04-25T22:29:19.342Z,4.63
2024-04-25T22:31:46.516Z,2.22
2024-04-25T22:34:14.179Z,4.07
2024-04-25T22:36:41.219Z,3.25
2024-04-25T22:39:09.248Z,5.60
2024-04-25T22:41:36.331Z,3.03
2024-04-25T22:44:03.392Z,1.30
2024-04-25T22:46:30.475Z,2.38
2024-04-25T22:48:57.571Z,1.83
2024-04-25T22:51:24.883Z,6.00
2024-04-25T22:53:52.079Z,2.17
2024-04-25T22:56:19.702Z,1.92
2024-04-25T22:58:47.214Z,2.88
2024-04-25T23:01:14.292Z,3.42
2024-04-25T23:03:41.293Z,1.27
2024-04-25T23:06:09.081Z,3.65
2024-04-25T23:08:37.897Z,1.58
2024-04-25T23:11:05.165Z,1.40
2024-04-25T23:13:32.212Z,2.30
2024-04-25T23:15:59.285Z,1.83
2024-04-25T23:18:26.516Z,2.08
2024-04-25T23:20:53.731Z,2.63
2024-04-25T23:23:20.829Z,2.65
2024-04-25T23:25:47.904Z,2.25
2024-04-25T23:28:14.954Z,2.55
2024-04-25T23:30:42.348Z,3.13
2024-04-25T23:33:09.483Z,2.55
2024-04-25T23:35:37.195Z,2.38
2024-04-25T23:38:04.351Z,1.55
2024-04-25T23:40:32.153Z,2.17
2024-04-25T23:42:59.677Z,1.17
2024-04-25T23:45:26.931Z,2.60
2024-04-25T23:47:54.172Z,1.75
2024-04-25T23:50:21.345Z,4.82
2024-04-25T23:52:49.346Z,2.85
2024-04-25T23:55:16.406Z,2.38
2024-04-25T23:57:46.636Z,1.35
